sensor_id;sensor_type;location;lat;lon;timestamp;pressure;altitude;pressure_sealevel;temperature;humidity
61039;BME280;46919;45.816;3.104;2023-02-10T00:01:19;99799.25;;;-3.74;86.25
61039;BME280;46919;45.816;3.104;2023-02-10T00:03:45;99793.03;;;-3.73;84.98
61039;BME280;46919;45.816;3.104;2023-02-10T00:06:11;99796.88;;;-3.79;85.83
61039;BME280;46919;45.816;3.104;2023-02-10T00:08:38;99799.00;;;-3.86;86.18
61039;BME280;46919;45.816;3.104;2023-02-10T00:11:06;99798.16;;;-3.86;86.22
61039;BME280;46919;45.816;3.104;2023-02-10T00:13:32;99800.81;;;-3.86;85.89
61039;BME280;46919;45.816;3.104;2023-02-10T00:15:59;99796.78;;;-3.93;86.05
61039;BME280;46919;45.816;3.104;2023-02-10T00:18:25;99798.84;;;-3.98;86.83
61039;BME280;46919;45.816;3.104;2023-02-10T00:20:51;99802.84;;;-4.07;87.42
61039;BME280;46919;45.816;3.104;2023-02-10T00:23:16;99796.63;;;-4.06;85.97
61039;BME280;46919;45.816;3.104;2023-02-10T00:25:41;99805.50;;;-4.07;85.92
61039;BME280;46919;45.816;3.104;2023-02-10T00:28:07;99810.88;;;-4.09;86.04
61039;BME280;46919;45.816;3.104;2023-02-10T00:30:32;99815.72;;;-4.17;86.99
61039;BME280;46919;45.816;3.104;2023-02-10T00:32:58;99806.94;;;-4.18;87.26
61039;BME280;46919;45.816;3.104;2023-02-10T00:35:23;99811.13;;;-4.13;87.25
61039;BME280;46919;45.816;3.104;2023-02-10T00:37:49;99814.84;;;-4.18;87.25
61039;BME280;46919;45.816;3.104;2023-02-10T00:40:15;99809.72;;;-4.21;87.04
61039;BME280;46919;45.816;3.104;2023-02-10T00:42:41;99808.03;;;-4.22;86.54
61039;BME280;46919;45.816;3.104;2023-02-10T00:45:06;99814.34;;;-4.24;86.77
61039;BME280;46919;45.816;3.104;2023-02-10T00:47:32;99807.59;;;-4.30;86.78
61039;BME280;46919;45.816;3.104;2023-02-10T00:49:57;99805.13;;;-4.33;86.55
61039;BME280;46919;45.816;3.104;2023-02-10T00:52:23;99807.00;;;-4.35;86.51
61039;BME280;46919;45.816;3.104;2023-02-10T00:54:48;99800.78;;;-4.34;86.35
61039;BME280;46919;45.816;3.104;2023-02-10T00:57:14;99795.00;;;-4.41;87.18
61039;BME280;46919;45.816;3.104;2023-02-10T00:59:39;99793.34;;;-4.43;87.15
61039;BME280;46919;45.816;3.104;2023-02-10T01:02:05;99796.44;;;-4.35;86.80
61039;BME280;46919;45.816;3.104;2023-02-10T01:04:30;99791.31;;;-4.38;86.43
61039;BME280;46919;45.816;3.104;2023-02-10T01:06:56;99787.91;;;-4.40;87.10
61039;BME280;46919;45.816;3.104;2023-02-10T01:09:21;99793.19;;;-4.40;86.94
61039;BME280;46919;45.816;3.104;2023-02-10T01:11:47;99790.97;;;-4.48;87.53
61039;BME280;46919;45.816;3.104;2023-02-10T01:14:12;99792.84;;;-4.50;87.61
61039;BME280;46919;45.816;3.104;2023-02-10T01:16:38;99789.34;;;-4.50;88.47
61039;BME280;46919;45.816;3.104;2023-02-10T01:19:04;99789.59;;;-4.55;87.42
61039;BME280;46919;45.816;3.104;2023-02-10T01:21:31;99780.81;;;-4.56;88.06
61039;BME280;46919;45.816;3.104;2023-02-10T01:23:56;99780.97;;;-4.59;88.55
61039;BME280;46919;45.816;3.104;2023-02-10T01:26:22;99774.94;;;-4.61;88.53
61039;BME280;46919;45.816;3.104;2023-02-10T01:28:47;99776.50;;;-4.57;88.64
61039;BME280;46919;45.816;3.104;2023-02-10T01:31:17;99773.69;;;-4.53;88.42
61039;BME280;46919;45.816;3.104;2023-02-10T01:33:43;99778.97;;;-4.53;87.14
61039;BME280;46919;45.816;3.104;2023-02-10T01:36:14;99776.56;;;-4.58;87.51
61039;BME280;46919;45.816;3.104;2023-02-10T01:38:40;99782.78;;;-4.59;87.47
61039;BME280;46919;45.816;3.104;2023-02-10T01:41:07;99784.03;;;-4.66;88.35
61039;BME280;46919;45.816;3.104;2023-02-10T01:43:53;99797.50;;;-4.71;88.81
61039;BME280;46919;45.816;3.104;2023-02-10T01:46:19;99793.13;;;-4.72;88.21
61039;BME280;46919;45.816;3.104;2023-02-10T01:48:45;99799.72;;;-4.81;88.91
61039;BME280;46919;45.816;3.104;2023-02-10T01:51:11;99795.16;;;-4.77;88.83
61039;BME280;46919;45.816;3.104;2023-02-10T01:53:38;99804.69;;;-4.75;88.27
61039;BME280;46919;45.816;3.104;2023-02-10T01:56:05;99806.72;;;-4.80;88.51
61039;BME280;46919;45.816;3.104;2023-02-10T01:58:32;99800.84;;;-4.85;88.91
61039;BME280;46919;45.816;3.104;2023-02-10T02:01:00;99801.06;;;-4.89;89.06
61039;BME280;46919;45.816;3.104;2023-02-10T02:03:25;99803.63;;;-4.88;88.51
61039;BME280;46919;45.816;3.104;2023-02-10T02:05:51;99806.28;;;-4.88;88.73
61039;BME280;46919;45.816;3.104;2023-02-10T02:08:25;99809.97;;;-4.92;88.39
61039;BME280;46919;45.816;3.104;2023-02-10T02:11:27;99813.94;;;-4.83;88.62
61039;BME280;46919;45.816;3.104;2023-02-10T02:16:48;99808.16;;;-4.90;88.28
61039;BME280;46919;45.816;3.104;2023-02-10T02:33:33;99805.69;;;-5.11;89.29
61039;BME280;46919;45.816;3.104;2023-02-10T02:36:25;99812.72;;;-5.11;88.53
61039;BME280;46919;45.816;3.104;2023-02-10T02:38:58;99809.47;;;-5.16;88.09
61039;BME280;46919;45.816;3.104;2023-02-10T02:41:24;99806.97;;;-5.19;89.33
61039;BME280;46919;45.816;3.104;2023-02-10T02:43:50;99797.59;;;-5.25;89.57
61039;BME280;46919;45.816;3.104;2023-02-10T02:48:58;99804.66;;;-5.25;89.71
61039;BME280;46919;45.816;3.104;2023-02-10T02:51:47;99803.81;;;-5.26;90.05
61039;BME280;46919;45.816;3.104;2023-02-10T02:54:24;99790.94;;;-5.32;89.86
61039;BME280;46919;45.816;3.104;2023-02-10T03:00:03;99793.81;;;-5.37;90.70
61039;BME280;46919;45.816;3.104;2023-02-10T03:02:30;99791.00;;;-5.34;89.36
61039;BME280;46919;45.816;3.104;2023-02-10T03:04:58;99791.31;;;-5.40;89.81
61039;BME280;46919;45.816;3.104;2023-02-10T03:07:24;99787.13;;;-5.44;89.53
61039;BME280;46919;45.816;3.104;2023-02-10T03:09:50;99785.44;;;-5.45;89.16
61039;BME280;46919;45.816;3.104;2023-02-10T03:12:15;99784.81;;;-5.50;89.96
61039;BME280;46919;45.816;3.104;2023-02-10T03:14:41;99782.47;;;-5.56;90.34
61039;BME280;46919;45.816;3.104;2023-02-10T03:17:06;99785.03;;;-5.55;89.84
61039;BME280;46919;45.816;3.104;2023-02-10T03:19:32;99783.41;;;-5.57;89.72
61039;BME280;46919;45.816;3.104;2023-02-10T03:21:57;99786.19;;;-5.60;90.00
61039;BME280;46919;45.816;3.104;2023-02-10T03:24:23;99785.41;;;-5.62;90.12
61039;BME280;46919;45.816;3.104;2023-02-10T03:26:48;99780.91;;;-5.60;89.52
61039;BME280;46919;45.816;3.104;2023-02-10T03:29:14;99783.00;;;-5.67;90.32
61039;BME280;46919;45.816;3.104;2023-02-10T03:31:39;99778.72;;;-5.70;90.48
61039;BME280;46919;45.816;3.104;2023-02-10T03:34:06;99784.16;;;-5.73;90.51
61039;BME280;46919;45.816;3.104;2023-02-10T03:36:31;99786.00;;;-5.75;90.39
61039;BME280;46919;45.816;3.104;2023-02-10T03:38:59;99777.34;;;-5.77;91.04
61039;BME280;46919;45.816;3.104;2023-02-10T03:41:24;99772.38;;;-5.83;90.52
61039;BME280;46919;45.816;3.104;2023-02-10T03:43:50;99778.41;;;-5.81;89.62
61039;BME280;46919;45.816;3.104;2023-02-10T03:46:15;99781.34;;;-5.87;90.62
61039;BME280;46919;45.816;3.104;2023-02-10T03:48:41;99776.22;;;-5.90;90.34
61039;BME280;46919;45.816;3.104;2023-02-10T03:51:07;99775.78;;;-5.81;90.59
61039;BME280;46919;45.816;3.104;2023-02-10T03:53:34;99773.00;;;-5.78;90.64
61039;BME280;46919;45.816;3.104;2023-02-10T03:56:00;99770.50;;;-5.81;90.85
61039;BME280;46919;45.816;3.104;2023-02-10T03:58:26;99769.88;;;-5.86;90.50
61039;BME280;46919;45.816;3.104;2023-02-10T04:00:51;99772.81;;;-5.92;91.01
61039;BME280;46919;45.816;3.104;2023-02-10T04:03:17;99772.28;;;-5.99;91.23
61039;BME280;46919;45.816;3.104;2023-02-10T04:05:42;99781.94;;;-5.99;90.46
61039;BME280;46919;45.816;3.104;2023-02-10T04:08:08;99774.91;;;-5.99;90.92
61039;BME280;46919;45.816;3.104;2023-02-10T04:10:34;99781.19;;;-6.02;90.71
61039;BME280;46919;45.816;3.104;2023-02-10T04:13:00;99786.59;;;-6.05;90.77
61039;BME280;46919;45.816;3.104;2023-02-10T04:15:25;99794.63;;;-6.08;91.06
61039;BME280;46919;45.816;3.104;2023-02-10T04:17:51;99789.78;;;-6.17;91.42
61039;BME280;46919;45.816;3.104;2023-02-10T04:20:17;99789.94;;;-6.20;91.63
61039;BME280;46919;45.816;3.104;2023-02-10T04:22:42;99803.91;;;-6.18;90.84
61039;BME280;46919;45.816;3.104;2023-02-10T04:25:08;99796.91;;;-6.19;91.34
61039;BME280;46919;45.816;3.104;2023-02-10T04:27:33;99805.97;;;-6.25;91.79
61039;BME280;46919;45.816;3.104;2023-02-10T04:29:59;99805.72;;;-6.20;91.97
61039;BME280;46919;45.816;3.104;2023-02-10T04:32:25;99814.28;;;-6.15;91.53
61039;BME280;46919;45.816;3.104;2023-02-10T04:34:50;99816.78;;;-6.12;91.15
61039;BME280;46919;45.816;3.104;2023-02-10T04:37:16;99820.38;;;-6.14;92.00
61039;BME280;46919;45.816;3.104;2023-02-10T04:39:41;99819.69;;;-6.18;91.45
61039;BME280;46919;45.816;3.104;2023-02-10T04:42:07;99816.09;;;-6.17;90.44
61039;BME280;46919;45.816;3.104;2023-02-10T04:44:33;99817.97;;;-6.19;90.80
61039;BME280;46919;45.816;3.104;2023-02-10T04:46:58;99824.53;;;-6.28;91.39
61039;BME280;46919;45.816;3.104;2023-02-10T04:49:24;99826.94;;;-6.23;89.74
61039;BME280;46919;45.816;3.104;2023-02-10T04:51:50;99825.22;;;-6.24;90.99
61039;BME280;46919;45.816;3.104;2023-02-10T04:54:15;99826.22;;;-6.27;91.02
61039;BME280;46919;45.816;3.104;2023-02-10T04:56:41;99824.72;;;-6.32;92.08
61039;BME280;46919;45.816;3.104;2023-02-10T04:59:06;99828.28;;;-6.33;91.81
61039;BME280;46919;45.816;3.104;2023-02-10T05:01:32;99830.91;;;-6.33;90.42
61039;BME280;46919;45.816;3.104;2023-02-10T05:03:57;99831.03;;;-6.37;90.52
61039;BME280;46919;45.816;3.104;2023-02-10T05:06:22;99836.44;;;-6.40;91.42
61039;BME280;46919;45.816;3.104;2023-02-10T05:08:48;99835.47;;;-6.37;90.99
61039;BME280;46919;45.816;3.104;2023-02-10T05:11:15;99843.56;;;-6.42;91.32
61039;BME280;46919;45.816;3.104;2023-02-10T05:13:41;99846.41;;;-6.46;91.75
61039;BME280;46919;45.816;3.104;2023-02-10T05:16:08;99844.81;;;-6.50;92.44
61039;BME280;46919;45.816;3.104;2023-02-10T05:18:34;99837.88;;;-6.51;92.12
61039;BME280;46919;45.816;3.104;2023-02-10T05:21:01;99840.50;;;-6.51;92.28
61039;BME280;46919;45.816;3.104;2023-02-10T05:23:27;99844.09;;;-6.54;91.55
61039;BME280;46919;45.816;3.104;2023-02-10T05:25:53;99843.06;;;-6.50;91.05
61039;BME280;46919;45.816;3.104;2023-02-10T05:28:19;99850.94;;;-6.50;91.33
61039;BME280;46919;45.816;3.104;2023-02-10T05:30:44;99849.44;;;-6.56;91.79
61039;BME280;46919;45.816;3.104;2023-02-10T05:33:10;99842.56;;;-6.58;92.05
61039;BME280;46919;45.816;3.104;2023-02-10T05:35:35;99852.13;;;-6.57;91.84
61039;BME280;46919;45.816;3.104;2023-02-10T05:38:01;99848.31;;;-6.50;90.29
61039;BME280;46919;45.816;3.104;2023-02-10T05:40:27;99851.72;;;-6.48;90.19
61039;BME280;46919;45.816;3.104;2023-02-10T05:42:53;99850.00;;;-6.49;89.96
61039;BME280;46919;45.816;3.104;2023-02-10T05:45:18;99845.91;;;-6.54;90.98
61039;BME280;46919;45.816;3.104;2023-02-10T05:47:44;99845.19;;;-6.58;91.85
61039;BME280;46919;45.816;3.104;2023-02-10T05:50:09;99845.25;;;-6.60;91.69
61039;BME280;46919;45.816;3.104;2023-02-10T05:52:34;99838.34;;;-6.62;91.89
61039;BME280;46919;45.816;3.104;2023-02-10T05:55:00;99845.38;;;-6.63;92.08
61039;BME280;46919;45.816;3.104;2023-02-10T05:57:26;99837.69;;;-6.67;92.24
61039;BME280;46919;45.816;3.104;2023-02-10T05:59:51;99833.91;;;-6.62;90.70
61039;BME280;46919;45.816;3.104;2023-02-10T06:02:17;99842.94;;;-6.67;91.22
61039;BME280;46919;45.816;3.104;2023-02-10T06:04:42;99844.06;;;-6.73;91.60
61039;BME280;46919;45.816;3.104;2023-02-10T06:07:07;99848.53;;;-6.75;92.10
61039;BME280;46919;45.816;3.104;2023-02-10T06:09:33;99846.91;;;-6.78;91.51
61039;BME280;46919;45.816;3.104;2023-02-10T06:11:58;99843.41;;;-6.78;91.75
61039;BME280;46919;45.816;3.104;2023-02-10T06:14:24;99844.25;;;-6.78;91.71
61039;BME280;46919;45.816;3.104;2023-02-10T06:16:49;99841.13;;;-6.86;93.41
61039;BME280;46919;45.816;3.104;2023-02-10T06:19:15;99844.13;;;-6.95;93.38
61039;BME280;46919;45.816;3.104;2023-02-10T06:21:40;99849.28;;;-6.92;93.12
61039;BME280;46919;45.816;3.104;2023-02-10T06:24:06;99845.84;;;-6.94;94.04
61039;BME280;46919;45.816;3.104;2023-02-10T06:26:31;99841.69;;;-7.00;94.09
61039;BME280;46919;45.816;3.104;2023-02-10T06:28:57;99842.72;;;-7.02;94.01
61039;BME280;46919;45.816;3.104;2023-02-10T06:31:22;99844.41;;;-7.01;93.24
61039;BME280;46919;45.816;3.104;2023-02-10T06:33:49;99842.44;;;-6.96;92.83
61039;BME280;46919;45.816;3.104;2023-02-10T06:36:14;99846.69;;;-6.94;92.67
61039;BME280;46919;45.816;3.104;2023-02-10T06:38:40;99846.25;;;-7.03;92.86
61039;BME280;46919;45.816;3.104;2023-02-10T06:41:05;99847.22;;;-7.06;92.08
61039;BME280;46919;45.816;3.104;2023-02-10T06:43:32;99842.03;;;-7.07;93.04
61039;BME280;46919;45.816;3.104;2023-02-10T06:45:57;99846.50;;;-7.10;93.01
61039;BME280;46919;45.816;3.104;2023-02-10T06:48:23;99851.50;;;-7.03;92.16
61039;BME280;46919;45.816;3.104;2023-02-10T06:50:48;99848.22;;;-7.08;91.96
61039;BME280;46919;45.816;3.104;2023-02-10T06:53:13;99849.13;;;-7.10;91.50
61039;BME280;46919;45.816;3.104;2023-02-10T06:55:39;99855.16;;;-7.07;91.83
61039;BME280;46919;45.816;3.104;2023-02-10T06:58:04;99863.25;;;-7.12;92.10
61039;BME280;46919;45.816;3.104;2023-02-10T07:00:30;99861.44;;;-7.10;92.83
61039;BME280;46919;45.816;3.104;2023-02-10T07:02:57;99861.25;;;-7.05;92.52
61039;BME280;46919;45.816;3.104;2023-02-10T07:05:23;99869.97;;;-7.05;92.45
61039;BME280;46919;45.816;3.104;2023-02-10T07:07:49;99869.19;;;-7.07;92.37
61039;BME280;46919;45.816;3.104;2023-02-10T07:10:17;99874.38;;;-7.05;92.23
61039;BME280;46919;45.816;3.104;2023-02-10T07:12:43;99876.88;;;-7.02;91.75
61039;BME280;46919;45.816;3.104;2023-02-10T07:15:09;99879.38;;;-6.99;91.99
61039;BME280;46919;45.816;3.104;2023-02-10T07:17:34;99886.13;;;-6.94;91.36
61039;BME280;46919;45.816;3.104;2023-02-10T07:20:02;99886.66;;;-6.85;90.29
61039;BME280;46919;45.816;3.104;2023-02-10T07:22:27;99890.94;;;-6.83;90.38
61039;BME280;46919;45.816;3.104;2023-02-10T07:24:53;99891.13;;;-6.87;90.63
61039;BME280;46919;45.816;3.104;2023-02-10T07:27:18;99898.06;;;-6.85;91.88
61039;BME280;46919;45.816;3.104;2023-02-10T07:29:44;99902.16;;;-6.79;91.79
61039;BME280;46919;45.816;3.104;2023-02-10T07:32:09;99903.69;;;-6.74;91.77
61039;BME280;46919;45.816;3.104;2023-02-10T07:34:34;99895.69;;;-6.70;90.83
61039;BME280;46919;45.816;3.104;2023-02-10T07:37:00;99899.16;;;-6.70;91.58
61039;BME280;46919;45.816;3.104;2023-02-10T07:39:26;99897.09;;;-6.63;91.53
61039;BME280;46919;45.816;3.104;2023-02-10T07:41:52;99900.19;;;-6.53;90.63
61039;BME280;46919;45.816;3.104;2023-02-10T07:44:18;99904.22;;;-6.45;91.24
61039;BME280;46919;45.816;3.104;2023-02-10T07:46:46;99909.25;;;-6.40;91.29
61039;BME280;46919;45.816;3.104;2023-02-10T07:49:11;99916.97;;;-6.35;91.30
61039;BME280;46919;45.816;3.104;2023-02-10T07:51:36;99920.09;;;-6.27;90.51
61039;BME280;46919;45.816;3.104;2023-02-10T07:54:02;99925.03;;;-6.20;90.67
61039;BME280;46919;45.816;3.104;2023-02-10T07:56:28;99919.28;;;-6.09;91.48
61039;BME280;46919;45.816;3.104;2023-02-10T07:58:53;99921.34;;;-5.96;91.21
61039;BME280;46919;45.816;3.104;2023-02-10T08:01:18;99925.72;;;-5.78;90.88
61039;BME280;46919;45.816;3.104;2023-02-10T08:03:44;99917.28;;;-5.66;90.95
61039;BME280;46919;45.816;3.104;2023-02-10T08:06:09;99928.91;;;-5.52;90.60
61039;BME280;46919;45.816;3.104;2023-02-10T08:08:35;99934.69;;;-5.44;90.68
61039;BME280;46919;45.816;3.104;2023-02-10T08:11:04;99927.34;;;-5.37;90.44
61039;BME280;46919;45.816;3.104;2023-02-10T08:13:29;99933.03;;;-5.28;89.81
61039;BME280;46919;45.816;3.104;2023-02-10T08:15:55;99939.41;;;-5.14;89.51
61039;BME280;46919;45.816;3.104;2023-02-10T08:18:20;99942.59;;;-5.07;89.32
61039;BME280;46919;45.816;3.104;2023-02-10T08:20:46;99943.63;;;-4.93;90.06
61039;BME280;46919;45.816;3.104;2023-02-10T08:23:16;99936.97;;;-4.82;89.52
61039;BME280;46919;45.816;3.104;2023-02-10T08:25:41;99932.88;;;-4.70;90.13
61039;BME280;46919;45.816;3.104;2023-02-10T08:28:07;99938.44;;;-4.59;89.84
61039;BME280;46919;45.816;3.104;2023-02-10T08:30:32;99935.88;;;-4.43;88.86
61039;BME280;46919;45.816;3.104;2023-02-10T08:32:58;99940.13;;;-4.23;88.29
61039;BME280;46919;45.816;3.104;2023-02-10T08:35:24;99945.69;;;-4.12;88.34
61039;BME280;46919;45.816;3.104;2023-02-10T08:37:50;99942.34;;;-3.98;88.29
61039;BME280;46919;45.816;3.104;2023-02-10T08:40:16;99943.53;;;-3.88;87.67
61039;BME280;46919;45.816;3.104;2023-02-10T08:42:41;99943.63;;;-3.73;87.49
61039;BME280;46919;45.816;3.104;2023-02-10T08:45:07;99941.59;;;-3.68;87.26
61039;BME280;46919;45.816;3.104;2023-02-10T08:47:33;99945.03;;;-3.66;87.11
61039;BME280;46919;45.816;3.104;2023-02-10T08:49:59;99940.75;;;-3.53;87.48
61039;BME280;46919;45.816;3.104;2023-02-10T08:52:25;99935.47;;;-3.37;87.23
61039;BME280;46919;45.816;3.104;2023-02-10T08:54:50;99938.09;;;-3.21;86.84
61039;BME280;46919;45.816;3.104;2023-02-10T08:57:16;99941.78;;;-3.07;86.27
61039;BME280;46919;45.816;3.104;2023-02-10T08:59:41;99936.63;;;-2.95;86.67
61039;BME280;46919;45.816;3.104;2023-02-10T09:02:08;99936.94;;;-2.85;86.26
61039;BME280;46919;45.816;3.104;2023-02-10T09:04:34;99935.47;;;-2.75;86.23
61039;BME280;46919;45.816;3.104;2023-02-10T09:06:59;99939.88;;;-2.59;86.11
61039;BME280;46919;45.816;3.104;2023-02-10T09:09:25;99940.16;;;-2.49;85.56
61039;BME280;46919;45.816;3.104;2023-02-10T09:11:52;99945.75;;;-2.40;85.75
61039;BME280;46919;45.816;3.104;2023-02-10T09:14:18;99943.44;;;-2.30;85.46
61039;BME280;46919;45.816;3.104;2023-02-10T09:16:44;99940.63;;;-2.12;85.63
61039;BME280;46919;45.816;3.104;2023-02-10T09:19:10;99942.50;;;-2.00;85.28
61039;BME280;46919;45.816;3.104;2023-02-10T09:21:35;99947.88;;;-1.87;85.80
61039;BME280;46919;45.816;3.104;2023-02-10T09:24:01;99951.88;;;-1.80;85.22
61039;BME280;46919;45.816;3.104;2023-02-10T09:26:26;99951.41;;;-1.72;85.74
61039;BME280;46919;45.816;3.104;2023-02-10T09:28:51;99947.31;;;-1.64;85.59
61039;BME280;46919;45.816;3.104;2023-02-10T09:31:18;99952.81;;;-1.52;85.33
61039;BME280;46919;45.816;3.104;2023-02-10T09:33:44;99947.88;;;-1.44;85.19
61039;BME280;46919;45.816;3.104;2023-02-10T09:36:13;99948.78;;;-1.31;84.82
61039;BME280;46919;45.816;3.104;2023-02-10T09:38:39;99955.03;;;-1.17;84.71
61039;BME280;46919;45.816;3.104;2023-02-10T09:49:43;99955.41;;;-0.69;84.05
61039;BME280;46919;45.816;3.104;2023-02-10T09:57:45;99956.03;;;-0.25;82.69
61039;BME280;46919;45.816;3.104;2023-02-10T10:00:25;99955.38;;;-0.16;83.04
61039;BME280;46919;45.816;3.104;2023-02-10T10:02:54;99960.94;;;-0.06;82.47
61039;BME280;46919;45.816;3.104;2023-02-10T10:07:56;99960.81;;;0.21;82.22
61039;BME280;46919;45.816;3.104;2023-02-10T10:10:36;99959.50;;;0.27;81.86
61039;BME280;46919;45.816;3.104;2023-02-10T10:13:14;99964.19;;;0.36;82.01
61039;BME280;46919;45.816;3.104;2023-02-10T10:15:49;99959.16;;;0.44;81.33
61039;BME280;46919;45.816;3.104;2023-02-10T10:18:29;99958.53;;;0.53;80.67
61039;BME280;46919;45.816;3.104;2023-02-10T10:21:10;99955.94;;;0.65;80.91
61039;BME280;46919;45.816;3.104;2023-02-10T10:23:43;99960.66;;;0.85;80.10
61039;BME280;46919;45.816;3.104;2023-02-10T10:28:58;99964.22;;;1.10;79.18
61039;BME280;46919;45.816;3.104;2023-02-10T10:31:29;99964.25;;;1.21;79.08
61039;BME280;46919;45.816;3.104;2023-02-10T10:34:02;99956.09;;;1.36;78.74
61039;BME280;46919;45.816;3.104;2023-02-10T10:36:38;99962.44;;;1.46;78.92
61039;BME280;46919;45.816;3.104;2023-02-10T10:42:11;99962.13;;;1.62;77.85
61039;BME280;46919;45.816;3.104;2023-02-10T10:44:41;99967.13;;;1.78;77.54
61039;BME280;46919;45.816;3.104;2023-02-10T10:47:14;99968.84;;;1.90;77.22
61039;BME280;46919;45.816;3.104;2023-02-10T10:49:41;99966.22;;;2.02;77.35
61039;BME280;46919;45.816;3.104;2023-02-10T10:52:31;99965.41;;;2.24;76.69
61039;BME280;46919;45.816;3.104;2023-02-10T10:55:06;99960.66;;;2.27;76.33
61039;BME280;46919;45.816;3.104;2023-02-10T10:57:34;99961.63;;;2.38;76.37
61039;BME280;46919;45.816;3.104;2023-02-10T11:02:38;99949.00;;;2.62;74.79
61039;BME280;46919;45.816;3.104;2023-02-10T11:05:13;99949.72;;;2.76;74.74
61039;BME280;46919;45.816;3.104;2023-02-10T11:07:40;99945.94;;;2.78;74.52
61039;BME280;46919;45.816;3.104;2023-02-10T11:10:15;99942.31;;;2.79;73.91
61039;BME280;46919;45.816;3.104;2023-02-10T11:12:45;99945.31;;;2.97;73.42
61039;BME280;46919;45.816;3.104;2023-02-10T11:15:38;99931.66;;;3.12;72.72
61039;BME280;46919;45.816;3.104;2023-02-10T11:18:07;99926.53;;;3.20;72.01
61039;BME280;46919;45.816;3.104;2023-02-10T11:20:38;99925.75;;;3.29;71.65
61039;BME280;46919;45.816;3.104;2023-02-10T11:23:12;99925.06;;;3.48;70.76
61039;BME280;46919;45.816;3.104;2023-02-10T11:25:39;99915.09;;;3.50;70.61
61039;BME280;46919;45.816;3.104;2023-02-10T11:28:15;99913.78;;;3.66;69.46
61039;BME280;46919;45.816;3.104;2023-02-10T11:30:41;99901.94;;;3.79;68.01
61039;BME280;46919;45.816;3.104;2023-02-10T11:33:18;99902.28;;;3.96;67.99
61039;BME280;46919;45.816;3.104;2023-02-10T11:35:51;99909.06;;;4.00;67.39
61039;BME280;46919;45.816;3.104;2023-02-10T11:38:20;99903.72;;;4.00;66.73
61039;BME280;46919;45.816;3.104;2023-02-10T11:40:56;99892.41;;;4.17;66.39
61039;BME280;46919;45.816;3.104;2023-02-10T11:43:30;99893.13;;;4.29;65.38
61039;BME280;46919;45.816;3.104;2023-02-10T11:45:58;99875.88;;;4.43;65.14
61039;BME280;46919;45.816;3.104;2023-02-10T11:48:26;99880.97;;;4.66;63.70
61039;BME280;46919;45.816;3.104;2023-02-10T11:51:03;99883.41;;;4.79;63.63
61039;BME280;46919;45.816;3.104;2023-02-10T11:53:31;99870.19;;;4.97;63.73
61039;BME280;46919;45.816;3.104;2023-02-10T11:56:02;99869.22;;;5.17;62.35
61039;BME280;46919;45.816;3.104;2023-02-10T11:58:43;99864.25;;;5.22;61.73
61039;BME280;46919;45.816;3.104;2023-02-10T12:07:16;99862.41;;;5.42;60.42
61039;BME280;46919;45.816;3.104;2023-02-10T12:10:03;99851.09;;;5.49;59.40
61039;BME280;46919;45.816;3.104;2023-02-10T12:29:57;99838.13;;;7.47;50.01
61039;BME280;46919;45.816;3.104;2023-02-10T12:35:15;99841.72;;;8.08;53.41
61039;BME280;46919;45.816;3.104;2023-02-10T12:37:59;99847.00;;;8.26;55.47
61039;BME280;46919;45.816;3.104;2023-02-10T12:46:17;99854.78;;;8.72;54.38
61039;BME280;46919;45.816;3.104;2023-02-10T12:51:54;99823.50;;;9.28;44.49
61039;BME280;46919;45.816;3.104;2023-02-10T12:54:35;99834.63;;;9.41;45.14
61039;BME280;46919;45.816;3.104;2023-02-10T12:57:10;99838.81;;;9.77;51.22
61039;BME280;46919;45.816;3.104;2023-02-10T13:02:38;99837.41;;;10.06;45.38
61039;BME280;46919;45.816;3.104;2023-02-10T13:05:11;99836.19;;;10.08;48.72
61039;BME280;46919;45.816;3.104;2023-02-10T13:08:00;99819.06;;;10.24;43.24
61039;BME280;46919;45.816;3.104;2023-02-10T13:10:42;99816.66;;;10.46;42.44
61039;BME280;46919;45.816;3.104;2023-02-10T13:13:13;99815.66;;;10.47;41.61
61039;BME280;46919;45.816;3.104;2023-02-10T13:18:20;99818.53;;;10.29;45.91
61039;BME280;46919;45.816;3.104;2023-02-10T13:21:04;99820.50;;;10.04;42.44
61039;BME280;46919;45.816;3.104;2023-02-10T13:32:10;99815.56;;;8.94;44.89
61039;BME280;46919;45.816;3.104;2023-02-10T13:34:45;99810.66;;;8.81;44.49
61039;BME280;46919;45.816;3.104;2023-02-10T13:42:46;99818.75;;;8.30;43.67
61039;BME280;46919;45.816;3.104;2023-02-10T13:47:41;99814.34;;;8.29;43.15
61039;BME280;46919;45.816;3.104;2023-02-10T13:57:57;99806.47;;;8.35;42.56
61039;BME280;46919;45.816;3.104;2023-02-10T14:00:28;99802.91;;;8.27;42.44
61039;BME280;46919;45.816;3.104;2023-02-10T14:03:20;99796.16;;;8.23;41.85
61039;BME280;46919;45.816;3.104;2023-02-10T14:05:57;99793.44;;;8.14;42.33
61039;BME280;46919;45.816;3.104;2023-02-10T14:11:00;99803.91;;;7.91;42.98
61039;BME280;46919;45.816;3.104;2023-02-10T14:13:29;99796.41;;;8.03;42.54
61039;BME280;46919;45.816;3.104;2023-02-10T14:15:58;99786.28;;;7.97;42.80
61039;BME280;46919;45.816;3.104;2023-02-10T14:18:30;99790.38;;;8.09;42.18
61039;BME280;46919;45.816;3.104;2023-02-10T14:21:09;99789.00;;;8.05;42.35
61039;BME280;46919;45.816;3.104;2023-02-10T14:23:38;99785.28;;;7.98;41.84
61039;BME280;46919;45.816;3.104;2023-02-10T14:26:07;99786.25;;;7.89;41.85
61039;BME280;46919;45.816;3.104;2023-02-10T14:28:37;99787.28;;;7.96;40.90
61039;BME280;46919;45.816;3.104;2023-02-10T14:31:29;99782.59;;;7.98;40.70
61039;BME280;46919;45.816;3.104;2023-02-10T14:34:03;99783.69;;;7.79;41.23
61039;BME280;46919;45.816;3.104;2023-02-10T14:36:29;99781.22;;;7.94;41.48
61039;BME280;46919;45.816;3.104;2023-02-10T14:39:02;99782.91;;;7.95;41.81
61039;BME280;46919;45.816;3.104;2023-02-10T14:41:32;99782.59;;;7.98;41.44
61039;BME280;46919;45.816;3.104;2023-02-10T14:43:57;99784.56;;;7.88;41.69
61039;BME280;46919;45.816;3.104;2023-02-10T14:46:27;99779.34;;;7.94;41.43
61039;BME280;46919;45.816;3.104;2023-02-10T14:49:00;99778.22;;;7.97;41.22
61039;BME280;46919;45.816;3.104;2023-02-10T14:51:28;99774.53;;;8.06;41.80
61039;BME280;46919;45.816;3.104;2023-02-10T14:53:54;99774.41;;;8.16;41.44
61039;BME280;46919;45.816;3.104;2023-02-10T14:56:26;99772.72;;;8.15;41.55
61039;BME280;46919;45.816;3.104;2023-02-10T14:58:52;99763.25;;;8.03;41.40
61039;BME280;46919;45.816;3.104;2023-02-10T15:01:33;99758.72;;;8.03;40.37
61039;BME280;46919;45.816;3.104;2023-02-10T15:03:59;99758.03;;;8.01;41.51